This is the latest recevied weather packets stored in our database for station/object EB1HRW. If no packets are shown the sender has not sent any weather packets the latest 10 day(s).
| Time | Temp. | Humidity | Pressure | Rain* | Wind** | Luminosity | Snow |
|---|---|---|---|---|---|---|---|
| 1777414543 | 13.33° C | 74% | 1008.5 hPa | 0 mm | - | - | - |
| 1777413643 | 13.33° C | 74% | 1008.6 hPa | 0 mm | - | - | - |
| 1777412743 | 13.33° C | 73% | 1008.1 hPa | 0 mm | - | - | - |
| 1777410943 | 13.33° C | 73% | 1008.2 hPa | 0 mm | - | - | - |
| 1777410043 | 13.33° C | 73% | 1008.1 hPa | 0 mm | - | - | - |
| 1777409142 | 12.78° C | 73% | 1007.3 hPa | 0 mm | - | - | - |
| 1777408244 | 12.78° C | 72% | 1007.2 hPa | 0.51 mm | - | - | - |
| 1777407344 | 12.78° C | 72% | 1007 hPa | 1.02 mm | - | - | - |
| 1777406442 | 12.22° C | 72% | 1007.2 hPa | 1.27 mm | - | - | - |
| 1777405543 | 12.78° C | 72% | 1007.2 hPa | 1.52 mm | - | - | - |
| 1777404643 | 12.78° C | 72% | 1007.2 hPa | 1.52 mm | - | - | - |
| 1777403743 | 12.78° C | 72% | 1007.5 hPa | 1.27 mm | - | - | - |
| 1777402843 | 12.78° C | 72% | 1006.8 hPa | 1.02 mm | - | - | - |
| 1777401942 | 12.78° C | 73% | 1006.5 hPa | 0.76 mm | - | - | - |
| 1777401044 | 12.78° C | 78% | 1006.4 hPa | 0 mm | - | - | - |
| 1777399243 | 18.33° C | 71% | 1006.5 hPa | 0 mm | - | - | - |
| 1777398343 | 19.44° C | 62% | 1006.1 hPa | 0 mm | - | - | - |
| 1777397443 | 20.56° C | 60% | 1005.9 hPa | 0 mm | - | - | - |
| 1777396542 | 20.56° C | 59% | 1006 hPa | 0 mm | - | - | - |
| 1777394744 | 23.33° C | 39% | 1005.6 hPa | 0 mm | - | - | - |
| 1777393844 | 23.33° C | 45% | 1005.5 hPa | 0 mm | - | - | - |
| 1777391143 | 22.78° C | 49% | 1005.8 hPa | 0 mm | - | - | - |
| 1777390243 | 23.33° C | 49% | 1005.9 hPa | 0 mm | - | - | - |
| 1777389343 | 23.89° C | 50% | 1006.1 hPa | 0 mm | - | - | - |
| 1777388443 | 23.33° C | 49% | 1006.3 hPa | 0 mm | - | - | - |
* Rain latest hour (hover to see other rain measurements)
** Current wind speed in m/s (hover to see current wind gust speed)